Time;durP1;ratioP1;P1;durP2;ratioP2;P2;SDS_P1;SDS_P2;PMS_P1;PMS_P2;Temp;Humidity;BMP_temperature;BMP_pressure;BME280_temperature;BME280_humidity;BME280_pressure;Samples;Min_cycle;Max_cycle;Signal;HPM_P1;HPM_P2
2022/04/06 00:01:46;;;;;;;6.53;2.88;;;;;;;;;;5089827;28;20615;-74
2022/04/06 00:04:12;;;;;;;6.13;2.10;;;;;;;;;;5088117;28;20481;-74
2022/04/06 00:06:38;;;;;;;6.38;2.10;;;;;;;;;;5088183;28;20039;-74
2022/04/06 00:09:05;;;;;;;8.30;3.13;;;;;;;;;;5092940;28;20537;-74
2022/04/06 00:11:31;;;;;;;6.03;2.40;;;;;;;;;;5078228;28;20031;-74
2022/04/06 00:13:57;;;;;;;5.88;2.58;;;;;;;;;;5070705;28;20485;-74
2022/04/06 00:16:23;;;;;;;6.50;2.42;;;;;;;;;;5091839;28;20051;-74
2022/04/06 00:18:49;;;;;;;8.52;2.75;;;;;;;;;;5085792;28;20108;-74
2022/04/06 00:21:16;;;;;;;4.22;2.13;;;;;;;;;;5090331;28;20020;-74
2022/04/06 00:23:42;;;;;;;9.93;2.60;;;;;;;;;;5087962;28;20500;-73
2022/04/06 00:26:08;;;;;;;7.65;2.70;;;;;;;;;;5082723;28;20039;-73
2022/04/06 00:28:34;;;;;;;4.28;1.90;;;;;;;;;;5083574;28;20060;-73
2022/04/06 00:31:00;;;;;;;5.15;2.33;;;;;;;;;;5086420;28;20016;-74
2022/04/06 00:33:26;;;;;;;7.78;2.08;;;;;;;;;;5087087;28;20107;-73
2022/04/06 00:35:52;;;;;;;5.95;2.00;;;;;;;;;;5083147;28;20028;-73
2022/04/06 00:38:18;;;;;;;6.00;2.40;;;;;;;;;;5069391;28;20032;-74
2022/04/06 00:40:45;;;;;;;4.70;1.70;;;;;;;;;;5089915;28;20616;-74
2022/04/06 00:43:12;;;;;;;6.25;2.13;;;;;;;;;;5087121;28;20028;-73
2022/04/06 00:45:39;;;;;;;5.82;2.35;;;;;;;;;;5088349;28;20127;-74
2022/04/06 00:48:05;;;;;;;7.60;2.67;;;;;;;;;;5089232;28;20085;-73
2022/04/06 00:50:31;;;;;;;3.80;2.00;;;;;;;;;;5090326;28;20020;-74
2022/04/06 00:52:58;;;;;;;5.75;2.13;;;;;;;;;;5086425;28;20052;-74
2022/04/06 00:55:34;;;;;;;4.30;2.20;;;;;;;;;;5093168;28;20156;-74
2022/04/06 00:58:01;;;;;;;3.08;1.90;;;;;;;;;;5093175;28;20081;-76
2022/04/06 01:00:28;;;;;;;5.45;2.10;;;;;;;;;;5088923;28;20468;-74
2022/04/06 01:02:54;;;;;;;7.47;2.45;;;;;;;;;;5086676;28;20039;-75
2022/04/06 01:05:20;;;;;;;10.23;2.55;;;;;;;;;;5086854;28;20449;-74
2022/04/06 01:07:50;;;;;;;6.20;1.80;;;;;;;;;;5085973;28;20071;-74
2022/04/06 01:10:16;;;;;;;6.35;2.28;;;;;;;;;;5084219;28;20416;-75
2022/04/06 01:12:45;;;;;;;8.50;2.22;;;;;;;;;;5085824;28;20066;-74
2022/04/06 01:15:11;;;;;;;5.43;2.92;;;;;;;;;;5082830;28;20052;-73
2022/04/06 01:17:37;;;;;;;6.82;2.25;;;;;;;;;;5089207;28;20035;-74
2022/04/06 01:20:05;;;;;;;5.10;1.75;;;;;;;;;;5084662;28;20063;-74
2022/04/06 01:22:31;;;;;;;6.60;1.92;;;;;;;;;;5087820;28;20065;-74
2022/04/06 01:24:58;;;;;;;7.57;1.80;;;;;;;;;;5085324;28;20111;-74
2022/04/06 01:27:24;;;;;;;4.00;1.88;;;;;;;;;;5087778;28;20470;-74
2022/04/06 01:29:52;;;;;;;2.95;1.90;;;;;;;;;;5087234;28;20582;-74
2022/04/06 01:32:32;;;;;;;4.55;2.00;;;;;;;;;;5083463;28;20028;-74
2022/04/06 01:34:59;;;;;;;8.35;2.50;;;;;;;;;;5088932;28;20036;-73
2022/04/06 01:37:25;;;;;;;7.40;2.15;;;;;;;;;;5088061;28;20027;-73
2022/04/06 01:39:51;;;;;;;4.55;1.88;;;;;;;;;;5087784;28;20032;-73
2022/04/06 01:42:18;;;;;;;7.05;1.75;;;;;;;;;;5087001;28;20468;-73
2022/04/06 01:44:45;;;;;;;6.00;2.13;;;;;;;;;;5086365;28;20533;-74
2022/04/06 01:47:12;;;;;;;4.20;1.73;;;;;;;;;;5084103;28;20059;-73
2022/04/06 01:52:23;;;;;;;9.88;2.55;;;;;;;;;;5085495;28;20035;-74
2022/04/06 01:54:51;;;;;;;4.13;2.25;;;;;;;;;;5084940;28;20443;-74
2022/04/06 01:57:18;;;;;;;6.03;2.10;;;;;;;;;;5066327;28;20027;-74
2022/04/06 01:59:44;;;;;;;8.00;2.72;;;;;;;;;;5087322;28;20066;-73
2022/04/06 02:02:12;;;;;;;8.30;2.15;;;;;;;;;;5086953;28;20036;-73
2022/04/06 02:04:39;;;;;;;7.05;1.95;;;;;;;;;;5085416;28;20600;-74
2022/04/06 02:07:06;;;;;;;7.07;2.17;;;;;;;;;;5069032;28;20085;-74
2022/04/06 02:09:32;;;;;;;9.88;2.78;;;;;;;;;;5083699;28;20133;-74
2022/04/06 02:11:59;;;;;;;3.25;2.22;;;;;;;;;;5081805;28;20060;-74
2022/04/06 02:14:26;;;;;;;5.40;2.63;;;;;;;;;;5082285;28;20028;-74
2022/04/06 02:16:53;;;;;;;8.80;2.53;;;;;;;;;;5084585;28;20020;-74
2022/04/06 02:19:19;;;;;;;8.13;1.95;;;;;;;;;;5088828;28;20036;-74
2022/04/06 02:21:45;;;;;;;14.80;2.60;;;;;;;;;;5081346;28;20062;-74
2022/04/06 02:24:11;;;;;;;7.53;2.42;;;;;;;;;;5084981;28;20040;-73
2022/04/06 02:26:37;;;;;;;3.22;1.60;;;;;;;;;;5066871;28;20058;-73
2022/04/06 02:29:04;;;;;;;9.20;2.67;;;;;;;;;;5067867;28;20031;-74
2022/04/06 02:31:31;;;;;;;7.25;2.28;;;;;;;;;;5077714;28;20046;-73
2022/04/06 02:33:57;;;;;;;5.65;2.72;;;;;;;;;;5086628;28;20043;-74
2022/04/06 02:36:23;;;;;;;10.40;2.47;;;;;;;;;;5085694;28;20518;-74
2022/04/06 02:38:49;;;;;;;6.53;2.65;;;;;;;;;;5087096;28;20119;-74
2022/04/06 02:41:15;;;;;;;8.40;2.47;;;;;;;;;;5086934;28;20516;-72
2022/04/06 02:43:41;;;;;;;6.75;2.13;;;;;;;;;;5086333;28;20032;-73
2022/04/06 02:46:07;;;;;;;10.30;2.63;;;;;;;;;;5082075;28;20028;-74
2022/04/06 02:48:34;;;;;;;6.65;2.50;;;;;;;;;;5085804;28;20477;-73
2022/04/06 02:51:00;;;;;;;9.57;2.28;;;;;;;;;;5085956;28;20495;-73
2022/04/06 02:53:26;;;;;;;7.90;2.30;;;;;;;;;;5086533;28;20028;-73
2022/04/06 02:55:52;;;;;;;5.95;2.17;;;;;;;;;;5086740;28;20020;-73
2022/04/06 02:58:18;;;;;;;11.35;2.38;;;;;;;;;;5085651;28;20110;-74
2022/04/06 03:00:44;;;;;;;7.43;2.78;;;;;;;;;;5087322;28;20501;-73
2022/04/06 03:03:10;;;;;;;8.07;2.50;;;;;;;;;;5086128;28;20089;-73
2022/04/06 03:05:36;;;;;;;7.82;2.58;;;;;;;;;;5087159;28;20024;-72
2022/04/06 03:08:02;;;;;;;7.60;3.10;;;;;;;;;;5083692;28;20024;-74
2022/04/06 03:10:28;;;;;;;8.60;2.40;;;;;;;;;;5083651;28;20446;-76
2022/04/06 03:12:54;;;;;;;4.70;2.42;;;;;;;;;;5091631;28;20032;-73
2022/04/06 03:15:20;;;;;;;8.50;2.80;;;;;;;;;;5087027;28;20032;-74
2022/04/06 03:17:47;;;;;;;7.00;2.38;;;;;;;;;;5083712;28;20055;-73
2022/04/06 03:20:13;;;;;;;7.78;2.13;;;;;;;;;;5088704;28;20075;-74
2022/04/06 03:22:39;;;;;;;6.05;2.10;;;;;;;;;;5089578;28;20039;-74
2022/04/06 03:25:06;;;;;;;6.90;2.15;;;;;;;;;;5082043;28;20040;-73
2022/04/06 03:27:33;;;;;;;7.75;2.45;;;;;;;;;;5082884;28;20366;-74
2022/04/06 03:30:00;;;;;;;5.80;2.00;;;;;;;;;;5068020;28;20473;-74
2022/04/06 03:32:26;;;;;;;8.55;2.30;;;;;;;;;;5086898;28;20115;-74
2022/04/06 03:34:53;;;;;;;7.82;2.15;;;;;;;;;;5086867;28;20039;-74
2022/04/06 03:37:19;;;;;;;6.70;2.42;;;;;;;;;;5086188;28;21131;-73
2022/04/06 03:39:45;;;;;;;6.43;2.13;;;;;;;;;;5085809;28;20035;-73
2022/04/06 03:42:11;;;;;;;4.13;1.90;;;;;;;;;;5083952;28;20020;-74
2022/04/06 03:44:37;;;;;;;9.73;2.20;;;;;;;;;;5084624;28;20141;-73
2022/04/06 03:47:03;;;;;;;7.50;2.28;;;;;;;;;;5087283;28;21729;-73
2022/04/06 03:49:29;;;;;;;9.15;2.30;;;;;;;;;;5079556;28;20406;-74
2022/04/06 03:51:55;;;;;;;7.90;2.50;;;;;;;;;;5087116;28;20028;-73
2022/04/06 03:54:21;;;;;;;6.53;2.50;;;;;;;;;;5086109;28;20021;-75
2022/04/06 03:56:48;;;;;;;11.85;2.75;;;;;;;;;;5082487;28;20025;-73
2022/04/06 03:59:14;;;;;;;7.88;2.22;;;;;;;;;;5086522;28;20032;-73
2022/04/06 04:01:40;;;;;;;9.73;2.40;;;;;;;;;;5068646;28;20039;-73
2022/04/06 04:04:06;;;;;;;7.28;2.28;;;;;;;;;;5085003;28;20028;-72
2022/04/06 04:06:32;;;;;;;5.97;2.05;;;;;;;;;;5058160;28;20370;-73
2022/04/06 04:08:58;;;;;;;11.60;2.60;;;;;;;;;;5090646;28;20024;-73
2022/04/06 04:11:24;;;;;;;9.50;2.65;;;;;;;;;;5085242;28;20043;-74
2022/04/06 04:13:50;;;;;;;6.57;2.55;;;;;;;;;;5089430;28;20070;-74
2022/04/06 04:16:17;;;;;;;11.73;3.35;;;;;;;;;;5069983;28;20401;-73
2022/04/06 04:18:43;;;;;;;13.40;3.38;;;;;;;;;;5087997;28;20099;-73
2022/04/06 04:23:54;;;;;;;8.10;2.35;;;;;;;;;;5089187;28;20135;-73
2022/04/06 04:26:21;;;;;;;6.20;2.35;;;;;;;;;;5087951;28;20160;-74
2022/04/06 04:28:47;;;;;;;6.57;2.35;;;;;;;;;;5089969;28;20501;-74
2022/04/06 04:31:13;;;;;;;9.50;2.90;;;;;;;;;;5085698;28;20039;-73
2022/04/06 04:33:39;;;;;;;8.43;2.13;;;;;;;;;;5083782;28;20547;-73
2022/04/06 04:36:05;;;;;;;9.80;2.78;;;;;;;;;;5086465;28;20094;-74
2022/04/06 04:38:32;;;;;;;4.68;2.08;;;;;;;;;;5087105;28;20055;-73
2022/04/06 04:40:58;;;;;;;6.57;1.98;;;;;;;;;;5088135;28;20020;-74
2022/04/06 04:43:25;;;;;;;8.48;2.15;;;;;;;;;;5070779;28;20028;-73
2022/04/06 04:45:51;;;;;;;3.05;1.55;;;;;;;;;;5087812;28;20084;-73
2022/04/06 04:48:17;;;;;;;4.47;1.95;;;;;;;;;;5087037;28;20668;-72
2022/04/06 04:50:43;;;;;;;5.57;1.85;;;;;;;;;;5084108;28;20036;-73
2022/04/06 04:53:09;;;;;;;5.45;1.90;;;;;;;;;;5090264;28;20096;-73
2022/04/06 04:55:35;;;;;;;4.03;1.85;;;;;;;;;;5082965;28;20028;-74
2022/04/06 04:58:01;;;;;;;3.20;1.80;;;;;;;;;;5090572;28;20024;-74
2022/04/06 05:00:27;;;;;;;3.65;1.67;;;;;;;;;;5088616;28;20568;-74
2022/04/06 05:02:53;;;;;;;6.60;1.67;;;;;;;;;;5086273;28;20034;-74
2022/04/06 05:05:19;;;;;;;3.55;1.50;;;;;;;;;;5084768;28;20039;-73
2022/04/06 05:07:45;;;;;;;5.70;1.58;;;;;;;;;;5088392;28;20031;-73
2022/04/06 05:10:12;;;;;;;4.10;1.70;;;;;;;;;;5086209;28;20046;-74
2022/04/06 05:12:38;;;;;;;3.25;1.50;;;;;;;;;;5087275;28;20028;-74
2022/04/06 05:15:04;;;;;;;4.20;1.17;;;;;;;;;;5088447;28;20020;-74
2022/04/06 05:17:30;;;;;;;1.77;1.15;;;;;;;;;;5068090;28;20024;-73
2022/04/06 05:19:57;;;;;;;1.73;1.50;;;;;;;;;;5086463;28;20385;-73
2022/04/06 05:22:23;;;;;;;1.98;1.25;;;;;;;;;;5087195;28;20024;-73
2022/04/06 05:24:50;;;;;;;1.75;1.35;;;;;;;;;;5087768;28;20028;-73
2022/04/06 05:27:16;;;;;;;2.45;1.30;;;;;;;;;;5087484;28;20031;-74
2022/04/06 05:29:42;;;;;;;1.05;1.02;;;;;;;;;;5087672;28;20489;-74
2022/04/06 05:32:09;;;;;;;4.55;1.15;;;;;;;;;;5068148;28;20051;-74
2022/04/06 05:34:35;;;;;;;0.93;0.93;;;;;;;;;;5082337;28;20040;-74
2022/04/06 05:37:02;;;;;;;1.80;1.45;;;;;;;;;;5079814;28;20038;-74
2022/04/06 05:39:28;;;;;;;1.42;1.10;;;;;;;;;;5067164;28;20039;-72
2022/04/06 05:41:54;;;;;;;3.45;1.50;;;;;;;;;;5056373;28;20032;-74
2022/04/06 05:44:21;;;;;;;0.93;0.88;;;;;;;;;;5087016;28;20588;-75
2022/04/06 05:46:47;;;;;;;1.95;1.13;;;;;;;;;;5068607;28;20390;-75
2022/04/06 05:49:13;;;;;;;1.38;1.20;;;;;;;;;;5081330;28;20019;-74
2022/04/06 05:51:39;;;;;;;4.22;1.10;;;;;;;;;;5086469;28;20446;-74
2022/04/06 05:54:05;;;;;;;0.80;0.80;;;;;;;;;;5086015;28;20020;-73
2022/04/06 05:56:32;;;;;;;0.88;0.88;;;;;;;;;;5086096;28;20034;-73
2022/04/06 05:58:58;;;;;;;2.83;1.30;;;;;;;;;;5067569;28;20020;-74
2022/04/06 06:01:24;;;;;;;1.30;1.15;;;;;;;;;;5067228;28;20039;-73
2022/04/06 06:03:51;;;;;;;1.10;1.10;;;;;;;;;;5088559;28;20032;-74
2022/04/06 06:06:17;;;;;;;3.13;1.50;;;;;;;;;;5083735;28;20028;-74
2022/04/06 06:08:43;;;;;;;1.50;1.08;;;;;;;;;;5083830;28;20363;-73
2022/04/06 06:11:09;;;;;;;1.10;1.10;;;;;;;;;;5086659;28;20034;-74
2022/04/06 06:13:35;;;;;;;0.93;0.93;;;;;;;;;;5087542;28;20081;-73
2022/04/06 06:16:01;;;;;;;1.40;1.30;;;;;;;;;;5084805;28;20020;-72
2022/04/06 06:18:28;;;;;;;2.03;1.17;;;;;;;;;;5082368;28;20036;-73
2022/04/06 06:20:56;;;;;;;4.28;1.38;;;;;;;;;;5083679;28;20062;-73
2022/04/06 06:23:22;;;;;;;2.78;1.23;;;;;;;;;;5087105;28;20438;-73
2022/04/06 06:25:48;;;;;;;1.80;1.17;;;;;;;;;;5082622;28;20167;-73
2022/04/06 06:28:15;;;;;;;1.48;1.38;;;;;;;;;;5059586;28;20050;-74
2022/04/06 06:30:41;;;;;;;1.20;1.10;;;;;;;;;;5083027;28;20062;-74
2022/04/06 06:33:07;;;;;;;1.83;1.10;;;;;;;;;;5068226;28;20119;-74
2022/04/06 06:35:33;;;;;;;2.17;1.40;;;;;;;;;;5086409;28;20040;-74
2022/04/06 06:37:59;;;;;;;3.92;1.45;;;;;;;;;;5086859;28;20036;-74
2022/04/06 06:40:26;;;;;;;1.38;1.27;;;;;;;;;;5069190;28;20048;-74
2022/04/06 06:42:52;;;;;;;1.20;1.10;;;;;;;;;;5088297;28;20076;-73
2022/04/06 06:45:18;;;;;;;1.63;1.20;;;;;;;;;;5088174;28;20576;-74
2022/04/06 06:47:45;;;;;;;1.67;1.40;;;;;;;;;;5082639;28;20032;-74
2022/04/06 06:50:12;;;;;;;1.40;1.30;;;;;;;;;;5075970;28;20444;-74
2022/04/06 06:52:38;;;;;;;1.60;1.30;;;;;;;;;;5083861;28;20028;-74
2022/04/06 06:55:05;;;;;;;2.33;1.60;;;;;;;;;;5087408;28;20460;-74
2022/04/06 06:57:32;;;;;;;8.70;1.98;;;;;;;;;;5085508;28;20028;-74
2022/04/06 06:59:58;;;;;;;1.52;1.25;;;;;;;;;;5084393;28;20477;-74
2022/04/06 07:02:24;;;;;;;2.28;1.70;;;;;;;;;;5083721;28;20085;-74
2022/04/06 07:04:50;;;;;;;4.18;1.50;;;;;;;;;;5086475;28;20411;-74
2022/04/06 07:07:16;;;;;;;2.03;1.30;;;;;;;;;;5084905;28;20485;-74
2022/04/06 07:09:42;;;;;;;3.83;1.98;;;;;;;;;;5083775;28;20039;-73
2022/04/06 07:12:10;;;;;;;1.35;1.25;;;;;;;;;;5057743;28;20024;-74
2022/04/06 07:14:36;;;;;;;3.53;1.50;;;;;;;;;;5090773;28;20024;-74
2022/04/06 07:17:03;;;;;;;2.85;1.25;;;;;;;;;;5086654;28;20154;-74
2022/04/06 07:19:29;;;;;;;1.45;1.35;;;;;;;;;;5065490;28;20101;-74
2022/04/06 07:21:55;;;;;;;2.47;1.00;;;;;;;;;;5083160;28;20016;-73
2022/04/06 07:24:21;;;;;;;1.85;1.40;;;;;;;;;;5086776;28;20051;-73
2022/04/06 07:26:47;;;;;;;1.30;1.10;;;;;;;;;;5082460;28;20115;-74
2022/04/06 07:29:15;;;;;;;2.83;0.95;;;;;;;;;;5085667;28;20062;-74
2022/04/06 07:31:44;;;;;;;1.40;1.10;;;;;;;;;;5078168;28;20052;-73
2022/04/06 07:34:10;;;;;;;2.72;1.10;;;;;;;;;;5081295;28;20052;-73
2022/04/06 07:36:37;;;;;;;3.47;2.40;;;;;;;;;;5085629;28;20128;-74
2022/04/06 07:39:06;;;;;;;1.92;1.40;;;;;;;;;;5083263;28;20028;-74
2022/04/06 07:41:32;;;;;;;2.42;1.30;;;;;;;;;;5088279;28;20032;-74
2022/04/06 07:43:58;;;;;;;1.45;1.15;;;;;;;;;;5088193;28;20028;-74
2022/04/06 07:46:25;;;;;;;1.00;1.00;;;;;;;;;;5088099;28;20027;-74
2022/04/06 07:48:51;;;;;;;1.55;1.45;;;;;;;;;;5091419;28;20485;-74
2022/04/06 07:51:17;;;;;;;1.40;1.00;;;;;;;;;;5067378;28;20395;-75
2022/04/06 07:53:43;;;;;;;1.52;1.42;;;;;;;;;;5091063;28;20041;-75
2022/04/06 07:56:09;;;;;;;1.10;1.10;;;;;;;;;;5088649;28;20028;-75
2022/04/06 07:58:36;;;;;;;1.58;1.38;;;;;;;;;;5090966;28;20505;-72
2022/04/06 08:01:05;;;;;;;1.25;1.20;;;;;;;;;;5090028;28;20482;-75
2022/04/06 08:03:31;;;;;;;1.42;1.33;;;;;;;;;;5090555;28;20492;-75
2022/04/06 08:05:57;;;;;;;2.03;1.55;;;;;;;;;;5090154;28;20020;-75
2022/04/06 08:08:24;;;;;;;3.10;1.70;;;;;;;;;;5092214;28;20032;-75
2022/04/06 08:10:50;;;;;;;1.00;1.00;;;;;;;;;;5093922;28;20028;-75
2022/04/06 08:13:16;;;;;;;2.78;1.60;;;;;;;;;;5092618;28;20641;-75
2022/04/06 08:15:42;;;;;;;2.00;1.50;;;;;;;;;;5088879;28;20026;-75
2022/04/06 08:18:08;;;;;;;1.50;1.40;;;;;;;;;;5089620;28;20028;-75
2022/04/06 08:20:34;;;;;;;1.38;1.27;;;;;;;;;;5090942;28;20043;-75
2022/04/06 08:23:01;;;;;;;3.72;1.77;;;;;;;;;;5092121;28;20023;-75
2022/04/06 08:25:27;;;;;;;2.90;1.60;;;;;;;;;;5090794;28;20031;-75
2022/04/06 08:27:53;;;;;;;1.40;1.30;;;;;;;;;;5089783;28;20029;-75
2022/04/06 08:30:22;;;;;;;1.85;1.58;;;;;;;;;;5090405;28;20024;-75
2022/04/06 08:32:49;;;;;;;2.10;1.40;;;;;;;;;;5089744;28;20024;-75
2022/04/06 08:35:17;;;;;;;1.83;1.42;;;;;;;;;;5087970;28;20040;-75
2022/04/06 08:37:43;;;;;;;24.27;3.25;;;;;;;;;;5071900;28;20086;-75
2022/04/06 08:40:10;;;;;;;3.28;1.40;;;;;;;;;;5085218;28;20056;-75
2022/04/06 08:42:37;;;;;;;2.75;2.53;;;;;;;;;;5091985;28;20020;-75
2022/04/06 08:45:07;;;;;;;3.33;1.63;;;;;;;;;;5088911;28;20031;-75
2022/04/06 08:47:34;;;;;;;2.92;1.73;;;;;;;;;;5088480;28;20025;-75
2022/04/06 08:50:03;;;;;;;2.10;1.65;;;;;;;;;;5087345;28;20067;-76
2022/04/06 08:52:33;;;;;;;2.70;1.88;;;;;;;;;;5089067;28;20028;-75
2022/04/06 08:54:59;;;;;;;2.60;1.50;;;;;;;;;;5088359;28;20355;-75
2022/04/06 08:57:26;;;;;;;4.15;1.77;;;;;;;;;;5088836;28;20074;-74
2022/04/06 08:59:52;;;;;;;1.60;1.50;;;;;;;;;;5088646;28;20043;-74
2022/04/06 09:02:19;;;;;;;3.88;1.63;;;;;;;;;;5088502;28;20024;-74
2022/04/06 09:04:55;;;;;;;2.03;1.50;;;;;;;;;;5088976;28;20170;-74
2022/04/06 09:07:22;;;;;;;6.07;1.73;;;;;;;;;;5069520;28;20188;-74
2022/04/06 09:09:55;;;;;;;5.95;3.17;;;;;;;;;;5086889;28;20427;-74
2022/04/06 09:12:25;;;;;;;4.90;1.67;;;;;;;;;;5087621;28;20466;-74
2022/04/06 09:15:03;;;;;;;3.10;2.22;;;;;;;;;;5089406;28;20059;-73
2022/04/06 09:17:29;;;;;;;4.82;1.88;;;;;;;;;;5087342;28;20032;-72
2022/04/06 09:19:58;;;;;;;4.70;2.10;;;;;;;;;;5090120;28;20028;-74
2022/04/06 09:22:24;;;;;;;3.50;2.20;;;;;;;;;;5088873;28;20035;-74
2022/04/06 09:25:00;;;;;;;3.00;1.60;;;;;;;;;;5084695;28;20064;-74
2022/04/06 09:27:30;;;;;;;1.88;1.60;;;;;;;;;;5089306;28;20024;-74
2022/04/06 09:29:56;;;;;;;3.60;1.83;;;;;;;;;;5086310;28;20017;-73
2022/04/06 09:32:23;;;;;;;2.65;1.83;;;;;;;;;;5089270;28;20089;-73
2022/04/06 09:34:49;;;;;;;2.85;1.85;;;;;;;;;;5084439;28;20621;-74
2022/04/06 09:37:25;;;;;;;4.03;1.63;;;;;;;;;;5089081;28;20043;-73
2022/04/06 09:39:51;;;;;;;3.28;1.50;;;;;;;;;;5088084;28;20028;-73
2022/04/06 09:42:27;;;;;;;4.63;1.52;;;;;;;;;;5084359;28;20024;-73
2022/04/06 09:47:39;;;;;;;2.80;1.65;;;;;;;;;;5088454;28;20047;-74
2022/04/06 09:50:16;;;;;;;4.18;1.77;;;;;;;;;;5090451;28;20099;-73
2022/04/06 09:52:43;;;;;;;3.85;1.92;;;;;;;;;;5086490;28;20028;-73
2022/04/06 09:55:10;;;;;;;4.18;2.03;;;;;;;;;;5086406;28;20063;-74
2022/04/06 09:57:53;;;;;;;2.88;1.70;;;;;;;;;;5085371;28;20379;-74
2022/04/06 10:00:20;;;;;;;7.53;2.17;;;;;;;;;;5090204;28;20482;-73
2022/04/06 10:02:48;;;;;;;2.00;1.80;;;;;;;;;;5088709;28;20055;-74
2022/04/06 10:05:14;;;;;;;3.30;1.70;;;;;;;;;;5090598;28;20026;-74
2022/04/06 10:07:41;;;;;;;3.90;1.75;;;;;;;;;;5090103;28;20024;-74
2022/04/06 10:10:08;;;;;;;4.85;1.60;;;;;;;;;;5091210;28;20489;-74
2022/04/06 10:12:34;;;;;;;1.88;1.42;;;;;;;;;;5085754;28;20074;-73
2022/04/06 10:15:01;;;;;;;3.10;1.30;;;;;;;;;;5087712;28;20036;-74
2022/04/06 10:17:30;;;;;;;1.73;1.63;;;;;;;;;;5084119;28;20056;-73
2022/04/06 10:20:02;;;;;;;3.10;1.67;;;;;;;;;;5084730;28;20024;-74
2022/04/06 10:22:36;;;;;;;3.80;1.70;;;;;;;;;;5088733;28;20028;-73
2022/04/06 10:25:17;;;;;;;1.98;1.58;;;;;;;;;;5089463;28;20027;-74
2022/04/06 10:27:46;;;;;;;2.47;1.65;;;;;;;;;;5079660;28;20036;-73
2022/04/06 10:30:23;;;;;;;2.67;2.17;;;;;;;;;;5088328;28;20016;-73
2022/04/06 10:32:52;;;;;;;2.60;1.40;;;;;;;;;;5085414;28;20021;-74
2022/04/06 10:35:21;;;;;;;2.63;1.92;;;;;;;;;;5087723;28;20149;-73
2022/04/06 10:37:49;;;;;;;1.42;1.33;;;;;;;;;;5087709;28;20120;-73
2022/04/06 10:40:15;;;;;;;2.85;1.58;;;;;;;;;;5083432;28;20028;-73
2022/04/06 10:42:42;;;;;;;2.38;1.40;;;;;;;;;;5088251;28;20358;-73
2022/04/06 10:45:29;;;;;;;1.60;1.23;;;;;;;;;;5085637;28;20080;-74
2022/04/06 10:48:11;;;;;;;2.33;1.50;;;;;;;;;;5084914;28;20082;-73
2022/04/06 10:50:38;;;;;;;2.15;1.52;;;;;;;;;;5083585;28;20092;-73
2022/04/06 10:53:19;;;;;;;2.67;1.52;;;;;;;;;;5082967;28;20016;-74
2022/04/06 10:56:16;;;;;;;1.90;1.40;;;;;;;;;;5084729;28;20174;-73
2022/04/06 10:58:54;;;;;;;5.25;1.92;;;;;;;;;;5079457;28;20032;-73
2022/04/06 11:01:26;;;;;;;2.30;1.83;;;;;;;;;;5087201;28;20077;-74
2022/04/06 11:04:03;;;;;;;4.88;2.05;;;;;;;;;;5085428;28;20547;-72
2022/04/06 11:06:44;;;;;;;3.88;1.70;;;;;;;;;;5086745;28;20020;-74
2022/04/06 11:12:11;;;;;;;2.28;1.60;;;;;;;;;;5084980;28;20056;-75
2022/04/06 11:14:38;;;;;;;1.35;1.30;;;;;;;;;;5092069;28;20789;-75
2022/04/06 11:17:23;;;;;;;4.30;1.55;;;;;;;;;;5092072;28;20107;-75
2022/04/06 11:19:52;;;;;;;2.25;1.70;;;;;;;;;;5082403;28;20382;-74
2022/04/06 11:22:22;;;;;;;2.45;1.63;;;;;;;;;;5090796;28;20051;-74
2022/04/06 11:24:48;;;;;;;4.10;2.10;;;;;;;;;;5074546;28;20089;-74
2022/04/06 11:27:27;;;;;;;5.60;2.53;;;;;;;;;;5066975;28;20035;-74
2022/04/06 11:30:14;;;;;;;3.85;2.00;;;;;;;;;;5085516;28;20020;-74
2022/04/06 11:32:43;;;;;;;4.35;1.73;;;;;;;;;;5086217;28;20020;-74
2022/04/06 11:35:10;;;;;;;3.15;1.70;;;;;;;;;;5090454;28;20032;-75
2022/04/06 11:37:41;;;;;;;6.03;1.77;;;;;;;;;;5091911;28;20032;-74
2022/04/06 11:40:07;;;;;;;2.45;1.45;;;;;;;;;;5076803;28;20450;-77
2022/04/06 11:42:33;;;;;;;2.92;1.80;;;;;;;;;;5072865;28;20441;-75
2022/04/06 11:44:59;;;;;;;2.90;1.80;;;;;;;;;;5089101;28;20039;-74
2022/04/06 11:47:29;;;;;;;3.53;2.30;;;;;;;;;;5067143;28;20085;-75
2022/04/06 11:49:55;;;;;;;3.42;1.98;;;;;;;;;;5089582;28;20322;-75
2022/04/06 11:52:22;;;;;;;2.28;1.80;;;;;;;;;;5091642;28;20027;-74
2022/04/06 11:54:52;;;;;;;2.03;1.73;;;;;;;;;;5089541;28;20028;-74
2022/04/06 11:57:18;;;;;;;7.03;2.92;;;;;;;;;;5092527;28;20074;-75
2022/04/06 11:59:56;;;;;;;8.88;3.33;;;;;;;;;;5088578;28;20077;-75
2022/04/06 12:02:23;;;;;;;6.05;2.45;;;;;;;;;;5090038;28;20055;-75
2022/04/06 12:05:04;;;;;;;5.03;3.05;;;;;;;;;;5088997;28;20028;-75
2022/04/06 12:07:31;;;;;;;3.72;2.10;;;;;;;;;;5091737;28;20031;-74
2022/04/06 12:09:57;;;;;;;3.53;2.17;;;;;;;;;;5088836;28;20477;-75
2022/04/06 12:12:24;;;;;;;2.60;1.80;;;;;;;;;;5086007;28;20028;-75
2022/04/06 12:14:53;;;;;;;5.03;2.13;;;;;;;;;;5090039;28;20782;-74
2022/04/06 12:17:20;;;;;;;4.03;2.40;;;;;;;;;;5090702;28;20174;-75
2022/04/06 12:19:46;;;;;;;4.70;2.40;;;;;;;;;;5091879;28;20501;-75
2022/04/06 12:22:13;;;;;;;7.25;3.33;;;;;;;;;;5090329;28;20039;-76
2022/04/06 12:24:39;;;;;;;5.22;2.30;;;;;;;;;;5090157;28;20611;-74
2022/04/06 12:27:06;;;;;;;6.20;2.20;;;;;;;;;;5090784;28;20173;-74
2022/04/06 12:29:33;;;;;;;3.83;1.92;;;;;;;;;;5090273;28;20021;-75
2022/04/06 12:32:00;;;;;;;4.15;2.47;;;;;;;;;;5092581;28;20020;-74
2022/04/06 12:34:32;;;;;;;4.90;2.00;;;;;;;;;;5068795;28;20052;-74
2022/04/06 12:36:58;;;;;;;2.58;2.00;;;;;;;;;;5085126;28;20024;-72
2022/04/06 12:39:25;;;;;;;5.15;2.53;;;;;;;;;;5091334;28;20114;-76
2022/04/06 12:41:55;;;;;;;3.00;2.40;;;;;;;;;;5089835;28;20028;-74
2022/04/06 12:44:22;;;;;;;6.70;2.55;;;;;;;;;;5092360;28;20095;-74
2022/04/06 12:46:48;;;;;;;4.00;1.90;;;;;;;;;;5092325;28;20429;-75
2022/04/06 12:49:24;;;;;;;5.90;2.15;;;;;;;;;;5090005;28;20017;-74
2022/04/06 12:52:09;;;;;;;5.25;2.58;;;;;;;;;;5092926;28;20032;-73
2022/04/06 12:54:36;;;;;;;5.27;1.97;;;;;;;;;;5089905;28;20439;-74
2022/04/06 12:57:06;;;;;;;2.88;1.92;;;;;;;;;;5091850;28;20028;-75
2022/04/06 12:59:36;;;;;;;4.15;2.10;;;;;;;;;;5064945;28;20040;-74
2022/04/06 13:02:02;;;;;;;5.75;2.03;;;;;;;;;;5087996;28;20362;-75
2022/04/06 13:04:28;;;;;;;2.72;1.55;;;;;;;;;;5071279;28;20063;-74
2022/04/06 13:06:57;;;;;;;5.30;1.70;;;;;;;;;;5088907;28;20127;-74
2022/04/06 13:09:24;;;;;;;4.55;1.98;;;;;;;;;;5084553;28;20075;-74
2022/04/06 13:11:51;;;;;;;2.03;1.83;;;;;;;;;;5090699;28;20445;-74
2022/04/06 13:14:17;;;;;;;3.58;1.73;;;;;;;;;;5092428;28;20480;-74
2022/04/06 13:16:43;;;;;;;3.60;1.52;;;;;;;;;;5086898;28;20028;-73
2022/04/06 13:19:10;;;;;;;2.75;1.73;;;;;;;;;;5092491;28;20032;-73
2022/04/06 13:21:37;;;;;;;2.75;1.80;;;;;;;;;;5089701;28;20020;-74
2022/04/06 13:24:06;;;;;;;4.78;1.65;;;;;;;;;;5091371;28;20382;-73
2022/04/06 13:26:32;;;;;;;3.45;2.20;;;;;;;;;;5088517;28;20020;-74
2022/04/06 13:28:59;;;;;;;1.95;1.60;;;;;;;;;;5091346;28;20036;-74
2022/04/06 13:31:27;;;;;;;3.17;1.70;;;;;;;;;;5089523;28;20430;-75
2022/04/06 13:33:53;;;;;;;4.40;1.88;;;;;;;;;;5061204;28;20036;-74
2022/04/06 13:36:20;;;;;;;2.47;1.63;;;;;;;;;;5088071;28;20069;-74
2022/04/06 13:38:47;;;;;;;3.05;1.92;;;;;;;;;;5053605;28;20713;-73
2022/04/06 13:41:13;;;;;;;3.20;1.80;;;;;;;;;;5088602;28;20024;-74
2022/04/06 13:43:39;;;;;;;4.38;2.00;;;;;;;;;;5084954;28;20442;-74
2022/04/06 13:46:06;;;;;;;2.33;1.77;;;;;;;;;;5091033;28;20048;-74
2022/04/06 13:48:33;;;;;;;4.47;2.00;;;;;;;;;;5089423;28;20381;-74
2022/04/06 13:51:00;;;;;;;4.38;2.60;;;;;;;;;;5087198;28;20035;-74
2022/04/06 13:53:26;;;;;;;7.32;2.45;;;;;;;;;;5090586;28;20370;-74
2022/04/06 13:55:52;;;;;;;2.13;1.83;;;;;;;;;;5083632;28;20056;-75
2022/04/06 13:58:19;;;;;;;2.97;2.03;;;;;;;;;;5088143;28;20032;-74
2022/04/06 14:00:46;;;;;;;4.88;2.33;;;;;;;;;;5088226;28;20107;-74
2022/04/06 14:03:14;;;;;;;9.40;3.15;;;;;;;;;;5088770;28;20066;-74
2022/04/06 14:05:41;;;;;;;2.90;1.80;;;;;;;;;;5087167;28;20020;-74
2022/04/06 14:08:08;;;;;;;3.75;2.15;;;;;;;;;;5088180;28;20020;-75
2022/04/06 14:10:35;;;;;;;3.78;2.50;;;;;;;;;;5087364;28;20924;-74
2022/04/06 14:13:01;;;;;;;2.60;1.85;;;;;;;;;;5085820;28;20028;-74
2022/04/06 14:15:27;;;;;;;3.53;1.90;;;;;;;;;;5086706;28;20024;-75
2022/04/06 14:17:53;;;;;;;4.43;1.95;;;;;;;;;;5078538;28;20044;-74
2022/04/06 14:20:19;;;;;;;3.40;2.00;;;;;;;;;;5084970;28;20036;-74
2022/04/06 14:22:48;;;;;;;5.10;2.20;;;;;;;;;;5089063;28;20673;-74
2022/04/06 14:25:19;;;;;;;4.57;2.08;;;;;;;;;;5067040;28;20450;-74
2022/04/06 14:27:45;;;;;;;5.95;3.00;;;;;;;;;;5088461;28;20020;-74
2022/04/06 14:30:11;;;;;;;4.53;2.22;;;;;;;;;;5087724;28;20020;-73
2022/04/06 14:32:38;;;;;;;6.95;3.83;;;;;;;;;;5083733;28;20024;-75
2022/04/06 14:35:04;;;;;;;5.30;3.67;;;;;;;;;;5082797;28;20074;-74
2022/04/06 14:37:30;;;;;;;6.05;2.63;;;;;;;;;;5081772;28;20071;-75
2022/04/06 14:39:56;;;;;;;4.22;2.50;;;;;;;;;;5085000;28;20043;-73
2022/04/06 14:42:23;;;;;;;4.82;2.78;;;;;;;;;;5080861;28;20039;-75
2022/04/06 14:44:49;;;;;;;4.28;2.55;;;;;;;;;;5086867;28;20485;-74
2022/04/06 14:47:17;;;;;;;5.53;2.00;;;;;;;;;;5084831;28;20036;-74
2022/04/06 14:49:43;;;;;;;3.35;1.90;;;;;;;;;;5084058;28;20462;-74
2022/04/06 14:52:10;;;;;;;6.80;2.05;;;;;;;;;;5087391;28;20035;-74
2022/04/06 14:54:36;;;;;;;3.78;1.98;;;;;;;;;;5086256;28;20493;-74
2022/04/06 14:57:02;;;;;;;3.78;1.80;;;;;;;;;;5070014;28;20028;-74